createdAt,value
2022-11-20T00:00:22.318Z,16.15
2022-11-20T00:03:04.601Z,16.28
2022-11-20T00:05:54.353Z,16.26
2022-11-20T00:08:36.638Z,16.00
2022-11-20T00:11:29.699Z,16.02
2022-11-20T00:14:11.649Z,15.99
2022-11-20T00:17:00.266Z,16.03
2022-11-20T00:19:43.098Z,15.83
2022-11-20T00:22:32.363Z,15.95
2022-11-20T00:25:21.620Z,15.94
2022-11-20T00:28:03.435Z,16.03
2022-11-20T00:30:54.067Z,16.00
2022-11-20T00:33:37.298Z,16.04
2022-11-20T00:36:22.180Z,16.08
2022-11-20T00:39:13.274Z,16.06
2022-11-20T00:42:02.246Z,15.93
2022-11-20T00:44:45.885Z,15.78
2022-11-20T00:47:34.319Z,15.91
2022-11-20T00:50:23.230Z,15.97
2022-11-20T00:53:12.018Z,15.89
2022-11-20T00:56:10.357Z,15.84
2022-11-20T00:58:52.619Z,15.92
2022-11-20T01:01:42.371Z,15.87
2022-11-20T01:04:30.658Z,15.83
2022-11-20T01:07:12.395Z,15.79
2022-11-20T01:10:01.290Z,15.82
2022-11-20T01:12:43.645Z,15.84
2022-11-20T01:15:32.260Z,15.90
2022-11-20T01:18:21.429Z,15.82
2022-11-20T01:21:09.077Z,15.72
2022-11-20T01:24:00.356Z,15.71
2022-11-20T01:26:58.225Z,15.79
2022-11-20T01:29:47.350Z,15.92
2022-11-20T01:32:29.612Z,15.94
2022-11-20T01:35:19.322Z,15.93
2022-11-20T01:38:01.695Z,15.89
2022-11-20T01:40:50.366Z,15.97
2022-11-20T01:43:33.596Z,15.97
2022-11-20T01:46:28.316Z,16.04
2022-11-20T01:49:52.454Z,16.20
2022-11-20T01:52:41.860Z,16.20
2022-11-20T01:55:37.364Z,16.20
2022-11-20T01:58:24.556Z,16.19
2022-11-20T02:01:13.297Z,16.14
2022-11-20T02:04:02.315Z,16.01
2022-11-20T02:07:04.284Z,16.09
2022-11-20T02:09:58.380Z,16.10
2022-11-20T02:12:59.180Z,16.16
2022-11-20T02:15:49.249Z,16.39
2022-11-20T02:18:32.600Z,16.43
2022-11-20T02:21:29.240Z,16.56
2022-11-20T02:24:24.627Z,16.58
2022-11-20T02:27:20.242Z,16.51
2022-11-20T02:30:04.613Z,16.64
2022-11-20T02:32:53.205Z,16.82
2022-11-20T02:35:35.562Z,16.86
2022-11-20T02:38:24.353Z,17.06
2022-11-20T02:41:06.678Z,17.07
2022-11-20T02:43:55.322Z,17.25
2022-11-20T02:46:37.649Z,17.41
2022-11-20T02:49:26.342Z,17.52
2022-11-20T02:52:09.585Z,17.54
2022-11-20T02:54:58.335Z,17.62
2022-11-20T02:57:40.609Z,17.73
2022-11-20T03:00:29.216Z,17.85
2022-11-20T03:03:11.534Z,17.72
2022-11-20T03:06:00.196Z,17.76
2022-11-20T03:08:42.646Z,18.02
2022-11-20T03:11:31.314Z,17.96
2022-11-20T03:14:21.442Z,18.10
2022-11-20T03:17:03.508Z,18.08
2022-11-20T03:19:52.198Z,18.27
2022-11-20T03:22:41.323Z,18.65
2022-11-20T03:25:30.645Z,19.18
2022-11-20T03:28:15.221Z,19.31
2022-11-20T03:31:04.629Z,19.90
2022-11-20T03:33:48.342Z,19.85
2022-11-20T03:36:31.305Z,20.11
2022-11-20T03:39:20.504Z,20.36
2022-11-20T03:42:02.460Z,20.68
2022-11-20T03:44:51.297Z,21.23
2022-11-20T03:47:33.486Z,21.55
2022-11-20T03:50:23.195Z,21.83
2022-11-20T03:53:11.606Z,22.95
2022-11-20T03:58:41.589Z,22.72
2022-11-20T04:01:36.392Z,22.32
2022-11-20T04:04:25.293Z,22.70
2022-11-20T04:07:07.583Z,23.06
2022-11-20T04:09:56.291Z,22.93
2022-11-20T04:12:48.286Z,23.36
2022-11-20T04:15:34.299Z,23.10
2022-11-20T04:18:26.241Z,23.42
2022-11-20T04:21:16.307Z,23.36
2022-11-20T04:24:06.196Z,23.36
2022-11-20T04:26:54.630Z,23.71
2022-11-20T04:29:36.688Z,23.50
2022-11-20T04:32:24.611Z,24.04
2022-11-20T04:35:06.277Z,24.26
2022-11-20T04:37:48.489Z,23.86
2022-11-20T04:40:37.281Z,24.19
2022-11-20T04:43:19.523Z,23.99
2022-11-20T04:46:09.267Z,23.25
2022-11-20T04:48:58.342Z,23.01
2022-11-20T04:51:40.559Z,23.05
2022-11-20T04:54:29.320Z,23.60
2022-11-20T04:57:18.311Z,23.37
2022-11-20T05:00:07.177Z,22.42
2022-11-20T05:02:49.616Z,22.88
2022-11-20T05:05:38.274Z,22.88
2022-11-20T05:08:20.626Z,23.13
2022-11-20T05:11:21.329Z,23.33
2022-11-20T05:14:03.583Z,23.11
2022-11-20T05:16:52.206Z,23.00
2022-11-20T05:19:41.264Z,23.35
2022-11-20T05:22:45.177Z,23.24
2022-11-20T05:25:41.177Z,22.84
2022-11-20T05:28:31.297Z,22.97
2022-11-20T05:31:25.006Z,22.59
2022-11-20T05:34:15.187Z,23.21
2022-11-20T05:36:58.611Z,23.23
2022-11-20T05:39:47.269Z,23.59
2022-11-20T05:42:32.521Z,23.74
2022-11-20T05:45:21.303Z,23.70
2022-11-20T05:48:09.649Z,23.55
2022-11-20T05:50:58.318Z,23.73
2022-11-20T05:53:46.835Z,24.04
2022-11-20T05:56:37.332Z,23.37
2022-11-20T05:59:26.269Z,23.87
2022-11-20T06:02:08.450Z,24.76
2022-11-20T06:04:57.224Z,24.54
2022-11-20T06:07:46.382Z,24.07
2022-11-20T06:10:28.594Z,23.86
2022-11-20T06:13:17.391Z,24.12
2022-11-20T06:16:01.609Z,24.55
2022-11-20T06:18:50.310Z,24.57
2022-11-20T06:21:39.191Z,24.90
2022-11-20T06:24:27.601Z,25.24
2022-11-20T06:27:16.308Z,25.58
2022-11-20T06:29:58.626Z,24.80
2022-11-20T06:32:47.215Z,24.79
2022-11-20T06:35:29.618Z,24.65
2022-11-20T06:38:18.257Z,24.68
2022-11-20T06:41:00.608Z,24.39
2022-11-20T06:43:49.164Z,24.57
2022-11-20T06:46:38.281Z,24.54
2022-11-20T06:49:27.188Z,24.78
2022-11-20T06:52:16.389Z,24.35
2022-11-20T06:54:58.514Z,24.65
2022-11-20T06:57:48.813Z,24.56
2022-11-20T07:00:41.675Z,24.40
2022-11-20T07:03:24.311Z,24.74
2022-11-20T07:06:08.006Z,24.80
2022-11-20T07:08:57.262Z,24.85
2022-11-20T07:11:45.524Z,25.30
2022-11-20T07:14:27.173Z,24.94
2022-11-20T07:17:15.655Z,25.55
2022-11-20T07:19:57.169Z,25.14
2022-11-20T07:22:46.669Z,25.08
2022-11-20T07:25:43.330Z,25.29
2022-11-20T07:28:25.570Z,24.83
2022-11-20T07:31:19.005Z,25.29
2022-11-20T07:34:01.522Z,25.50
2022-11-20T07:36:50.299Z,25.66
2022-11-20T07:39:39.720Z,25.54
2022-11-20T07:42:22.302Z,25.43
2022-11-20T07:45:12.700Z,25.31
2022-11-20T07:47:54.275Z,25.38
2022-11-20T07:50:43.755Z,25.51
2022-11-20T07:53:29.226Z,25.27
2022-11-20T07:56:18.321Z,25.78
2022-11-20T07:59:00.755Z,25.84
2022-11-20T08:01:49.258Z,25.94
2022-11-20T08:04:31.696Z,25.45
2022-11-20T08:07:20.230Z,25.45
2022-11-20T08:10:09.199Z,25.70
2022-11-20T08:13:18.250Z,25.60
2022-11-20T08:16:00.643Z,25.63
2022-11-20T08:18:49.323Z,25.98
2022-11-20T08:21:36.705Z,26.07
2022-11-20T08:24:28.255Z,25.92
2022-11-20T08:27:23.116Z,26.29
2022-11-20T08:30:13.253Z,26.06
2022-11-20T08:32:56.386Z,26.07
2022-11-20T08:35:46.356Z,25.89
2022-11-20T08:38:29.722Z,26.31
2022-11-20T08:41:35.179Z,25.97
2022-11-20T08:44:17.691Z,26.13
2022-11-20T08:47:06.233Z,26.28
2022-11-20T08:49:55.266Z,25.97
2022-11-20T08:52:44.290Z,26.23
2022-11-20T08:55:33.131Z,25.92
2022-11-20T08:58:22.343Z,25.80
2022-11-20T09:01:04.606Z,25.92
2022-11-20T09:03:53.345Z,26.18
2022-11-20T09:06:35.534Z,25.87
2022-11-20T09:09:24.524Z,26.05
2022-11-20T09:12:13.255Z,26.05
2022-11-20T09:15:02.328Z,25.78
2022-11-20T09:17:44.678Z,25.68
2022-11-20T09:20:34.341Z,25.85
2022-11-20T09:23:16.805Z,25.89
2022-11-20T09:26:08.302Z,25.86
2022-11-20T09:31:59.318Z,25.64
2022-11-20T09:34:41.573Z,25.85
2022-11-20T09:37:30.323Z,25.67
2022-11-20T09:40:13.546Z,25.86
2022-11-20T09:43:48.158Z,25.58
2022-11-20T09:46:37.695Z,25.71
2022-11-20T09:50:03.165Z,25.83
2022-11-20T09:52:51.666Z,25.50
2022-11-20T09:55:40.237Z,25.44
2022-11-20T09:58:31.755Z,25.70
2022-11-20T10:01:35.203Z,25.63
2022-11-20T10:04:21.163Z,25.61
2022-11-20T10:07:53.363Z,25.72
2022-11-20T10:10:44.027Z,25.61
2022-11-20T10:13:40.272Z,25.28
2022-11-20T10:16:45.690Z,25.51
2022-11-20T10:19:39.186Z,25.12
2022-11-20T10:22:36.643Z,25.20
2022-11-20T10:25:28.338Z,25.23
2022-11-20T10:28:36.281Z,25.35
2022-11-20T10:31:35.293Z,25.37
2022-11-20T10:34:58.292Z,25.23
2022-11-20T10:37:45.485Z,25.20
2022-11-20T10:40:50.322Z,25.11
2022-11-20T10:43:36.815Z,24.90
2022-11-20T10:46:39.288Z,24.87
2022-11-20T10:49:29.281Z,25.10
2022-11-20T10:52:14.603Z,25.00
2022-11-20T10:55:06.212Z,24.92
2022-11-20T10:58:00.706Z,24.74
2022-11-20T11:00:49.242Z,24.68
2022-11-20T11:03:38.624Z,24.53
2022-11-20T11:06:47.315Z,24.70
2022-11-20T11:09:38.682Z,24.51
2022-11-20T11:12:28.179Z,24.56
2022-11-20T11:15:18.305Z,24.40
2022-11-20T11:18:06.725Z,24.35
2022-11-20T11:21:00.307Z,24.29
2022-11-20T11:23:44.356Z,24.31
2022-11-20T11:26:39.239Z,24.23
2022-11-20T11:29:31.353Z,24.06
2022-11-20T11:32:21.309Z,23.97
2022-11-20T11:35:15.569Z,23.88
2022-11-20T11:37:58.257Z,23.71
2022-11-20T11:40:49.146Z,23.69
2022-11-20T11:43:57.110Z,23.46
2022-11-20T11:46:47.127Z,23.31
2022-11-20T11:49:29.733Z,23.19
2022-11-20T11:52:33.201Z,23.12
2022-11-20T11:55:22.584Z,22.99
2022-11-20T11:58:43.238Z,22.83
2022-11-20T12:01:43.499Z,22.68
2022-11-20T12:05:00.232Z,22.67
2022-11-20T12:07:47.365Z,22.56
2022-11-20T12:10:47.304Z,22.56
2022-11-20T12:13:33.706Z,22.51
2022-11-20T12:16:28.149Z,22.43
2022-11-20T12:19:10.559Z,22.36
2022-11-20T12:22:10.161Z,22.29
2022-11-20T12:24:52.748Z,22.20
2022-11-20T12:27:59.192Z,22.23
2022-11-20T12:30:50.689Z,22.06
2022-11-20T12:34:11.245Z,22.02
2022-11-20T12:37:09.692Z,21.86
2022-11-20T12:39:59.251Z,21.76
2022-11-20T12:43:12.185Z,21.68
2022-11-20T12:46:15.304Z,21.55
2022-11-20T12:49:24.918Z,21.50
2022-11-20T12:52:25.225Z,21.50
2022-11-20T12:55:45.703Z,21.44
2022-11-20T12:58:57.165Z,21.39
2022-11-20T13:02:07.350Z,21.36
2022-11-20T13:04:55.615Z,21.30
2022-11-20T13:07:39.386Z,21.16
2022-11-20T13:10:46.831Z,21.09
2022-11-20T13:14:00.235Z,20.97
2022-11-20T13:16:55.236Z,20.91
2022-11-20T13:19:37.571Z,20.86
2022-11-20T13:22:34.113Z,20.83
2022-11-20T13:25:26.228Z,20.64
2022-11-20T13:28:20.681Z,20.51
2022-11-20T13:31:04.285Z,20.44
2022-11-20T13:33:51.769Z,20.45
2022-11-20T13:36:45.192Z,20.42
2022-11-20T13:39:38.508Z,20.36
2022-11-20T13:42:20.199Z,20.25
2022-11-20T13:45:18.569Z,20.24
2022-11-20T13:48:02.149Z,20.19
2022-11-20T13:51:18.730Z,20.20
2022-11-20T13:54:15.157Z,20.13
2022-11-20T13:57:20.800Z,20.14
2022-11-20T14:00:22.284Z,19.97
2022-11-20T14:03:16.878Z,19.93
2022-11-20T14:06:15.241Z,19.84
2022-11-20T14:09:05.184Z,19.78
2022-11-20T14:12:02.279Z,19.74
2022-11-20T14:14:58.577Z,19.73
2022-11-20T14:17:44.266Z,19.71
2022-11-20T14:20:42.900Z,19.67
2022-11-20T14:23:37.278Z,19.59
2022-11-20T14:26:29.251Z,19.66
2022-11-20T14:29:11.608Z,19.52
2022-11-20T14:32:03.182Z,19.46
2022-11-20T14:34:58.437Z,19.34
2022-11-20T14:37:49.555Z,19.33
2022-11-20T14:40:46.290Z,19.38
2022-11-20T14:43:39.840Z,19.33
2022-11-20T14:46:23.289Z,19.16
2022-11-20T14:49:06.886Z,19.20
2022-11-20T14:51:56.216Z,19.09
2022-11-20T14:54:56.620Z,19.17
2022-11-20T14:57:41.247Z,19.10
2022-11-20T15:00:24.341Z,19.03
2022-11-20T15:03:13.275Z,19.02
2022-11-20T15:06:02.274Z,18.98
2022-11-20T15:08:44.656Z,18.91
2022-11-20T15:11:39.155Z,18.91
2022-11-20T15:14:28.200Z,18.92
2022-11-20T15:17:20.673Z,18.86
2022-11-20T15:20:04.260Z,18.82
2022-11-20T15:22:53.778Z,18.84
2022-11-20T15:25:37.201Z,18.80
2022-11-20T15:28:29.190Z,18.85
2022-11-20T15:31:19.203Z,18.84
2022-11-20T15:34:01.565Z,18.75
2022-11-20T15:36:53.685Z,18.71
2022-11-20T15:39:42.356Z,18.64
2022-11-20T15:42:24.545Z,18.59
2022-11-20T15:45:13.285Z,18.59
2022-11-20T15:47:56.552Z,18.53
2022-11-20T15:51:11.197Z,18.53
2022-11-20T15:53:53.705Z,18.44
2022-11-20T15:56:42.190Z,18.43
2022-11-20T15:59:24.717Z,18.46
2022-11-20T16:02:21.214Z,18.50
2022-11-20T16:05:03.701Z,18.41
2022-11-20T16:07:52.131Z,18.46
2022-11-20T16:10:41.265Z,18.39
2022-11-20T16:13:41.906Z,18.35
2022-11-20T16:16:41.190Z,18.37
2022-11-20T16:19:29.690Z,18.31
2022-11-20T16:22:12.194Z,18.28
2022-11-20T16:24:54.484Z,18.26
2022-11-20T16:27:43.141Z,18.34
2022-11-20T16:30:32.824Z,18.32
2022-11-20T16:33:23.272Z,18.32
2022-11-20T16:36:17.193Z,18.27
2022-11-20T16:39:10.394Z,18.19
2022-11-20T16:41:52.605Z,18.13
2022-11-20T16:44:42.251Z,18.12
2022-11-20T16:47:30.520Z,18.07
2022-11-20T16:50:14.229Z,18.05
2022-11-20T16:53:04.212Z,18.04
2022-11-20T16:55:53.239Z,18.02
2022-11-20T16:58:42.666Z,18.07
2022-11-20T17:01:29.300Z,18.04
2022-11-20T17:04:11.607Z,18.00
2022-11-20T17:07:06.419Z,17.88
2022-11-20T17:09:57.162Z,17.87
2022-11-20T17:12:46.270Z,17.83
2022-11-20T17:15:35.206Z,17.82
2022-11-20T17:18:17.581Z,17.80
2022-11-20T17:21:08.211Z,17.76
2022-11-20T17:23:52.236Z,17.69
2022-11-20T17:26:41.155Z,17.65
2022-11-20T17:29:41.945Z,17.64
2022-11-20T17:32:24.664Z,17.72
2022-11-20T17:35:13.237Z,17.63
2022-11-20T17:37:55.522Z,17.65
2022-11-20T17:40:46.255Z,17.60
2022-11-20T17:43:34.306Z,17.55
2022-11-20T17:46:35.257Z,17.57
2022-11-20T17:49:24.475Z,17.57
2022-11-20T17:52:07.249Z,17.54
2022-11-20T17:54:57.063Z,17.53
2022-11-20T17:57:58.254Z,17.46
2022-11-20T18:00:40.613Z,17.49
2022-11-20T18:03:29.190Z,17.46
2022-11-20T18:06:13.743Z,17.50
2022-11-20T18:09:03.220Z,17.46
2022-11-20T18:11:53.542Z,17.39
2022-11-20T18:14:38.757Z,17.49
2022-11-20T18:17:28.200Z,17.39
2022-11-20T18:20:36.568Z,17.41
2022-11-20T18:23:26.247Z,17.41
2022-11-20T18:26:09.686Z,17.31
2022-11-20T18:29:01.106Z,17.32
2022-11-20T18:31:46.579Z,17.30
2022-11-20T18:34:35.093Z,17.25
2022-11-20T18:37:17.791Z,17.14
2022-11-20T18:40:06.182Z,17.23
2022-11-20T18:43:13.155Z,17.10
2022-11-20T18:46:11.200Z,17.09
2022-11-20T18:48:54.659Z,17.03
2022-11-20T18:51:44.261Z,17.02
2022-11-20T18:54:26.505Z,17.00
2022-11-20T18:57:18.316Z,17.02
2022-11-20T19:00:09.278Z,17.03
2022-11-20T19:03:02.216Z,17.06
2022-11-20T19:05:44.563Z,16.96
2022-11-20T19:08:33.222Z,16.98
2022-11-20T19:11:17.518Z,16.91
2022-11-20T19:14:06.170Z,16.89
2022-11-20T19:16:56.524Z,16.83
2022-11-20T19:19:38.700Z,16.89
2022-11-20T19:22:27.206Z,16.79
2022-11-20T19:25:09.859Z,16.88
2022-11-20T19:27:59.283Z,16.80
2022-11-20T19:30:42.795Z,16.78
2022-11-20T19:33:31.209Z,16.72
2022-11-20T19:36:27.776Z,16.77
2022-11-20T19:39:17.081Z,16.71
2022-11-20T19:42:06.179Z,16.70
2022-11-20T19:44:48.447Z,16.57
2022-11-20T19:48:05.959Z,16.64
2022-11-20T19:50:47.213Z,16.59
2022-11-20T19:53:38.534Z,16.56
2022-11-20T19:56:21.181Z,16.58
2022-11-20T19:59:03.409Z,16.60
2022-11-20T20:01:52.248Z,16.59
2022-11-20T20:04:34.591Z,16.58
2022-11-20T20:07:23.214Z,16.51
2022-11-20T20:10:05.587Z,16.55
2022-11-20T20:12:54.234Z,16.47
2022-11-20T20:15:47.512Z,16.59
2022-11-20T20:18:29.206Z,16.63
2022-11-20T20:21:14.303Z,16.73
2022-11-20T20:24:07.163Z,16.87
2022-11-20T20:26:58.109Z,16.90
2022-11-20T20:29:47.155Z,16.89
2022-11-20T20:32:36.254Z,16.91
2022-11-20T20:35:18.435Z,16.95
2022-11-20T20:38:07.068Z,16.87
2022-11-20T20:40:53.494Z,16.88
2022-11-20T20:44:03.147Z,16.88
2022-11-20T20:46:52.213Z,16.85
2022-11-20T20:49:34.460Z,16.78
2022-11-20T20:52:23.222Z,16.77
2022-11-20T20:55:05.535Z,16.66
2022-11-20T20:57:54.138Z,16.68
2022-11-20T21:00:36.492Z,16.59
2022-11-20T21:03:30.505Z,16.49
2022-11-20T21:06:17.517Z,16.45
2022-11-20T21:09:06.226Z,16.33
2022-11-20T21:11:48.477Z,16.43
2022-11-20T21:14:37.216Z,16.47
2022-11-20T21:17:19.436Z,16.39
2022-11-20T21:20:08.121Z,16.41
2022-11-20T21:22:50.496Z,16.34
2022-11-20T21:25:39.239Z,16.35
2022-11-20T21:28:28.073Z,16.33
2022-11-20T21:31:23.182Z,16.30
2022-11-20T21:34:06.451Z,16.32
2022-11-20T21:36:55.149Z,16.40
2022-11-20T21:39:51.546Z,16.36
2022-11-20T21:42:40.055Z,16.36
2022-11-20T21:45:29.235Z,16.23
2022-11-20T21:48:11.394Z,16.42
2022-11-20T21:51:02.878Z,16.30
2022-11-20T21:53:55.540Z,16.40
2022-11-20T21:56:37.198Z,16.42
2022-11-20T21:59:25.464Z,16.46
2022-11-20T22:02:07.121Z,16.55
2022-11-20T22:04:57.074Z,16.51
2022-11-20T22:07:46.191Z,16.50
2022-11-20T22:10:29.081Z,16.54
2022-11-20T22:13:36.199Z,16.51
2022-11-20T22:16:18.708Z,16.56
2022-11-20T22:19:09.140Z,16.45
2022-11-20T22:21:54.368Z,16.31
2022-11-20T22:24:43.114Z,16.33
2022-11-20T22:27:38.189Z,16.30
2022-11-20T22:30:27.122Z,16.33
2022-11-20T22:33:17.061Z,16.33
2022-11-20T22:36:10.480Z,16.44
2022-11-20T22:38:53.989Z,16.38
2022-11-20T22:41:36.677Z,16.29
2022-11-20T22:44:28.168Z,16.28
2022-11-20T22:47:11.448Z,16.23
2022-11-20T22:50:00.160Z,16.23
2022-11-20T22:52:42.330Z,16.09
2022-11-20T22:55:31.077Z,16.11
2022-11-20T22:58:19.424Z,16.10
2022-11-20T23:01:01.189Z,16.12
2022-11-20T23:03:45.810Z,16.05
2022-11-20T23:06:36.116Z,16.11
2022-11-20T23:09:18.639Z,15.95
2022-11-20T23:12:08.093Z,15.87
2022-11-20T23:14:56.417Z,15.70
2022-11-20T23:17:38.106Z,15.57
2022-11-20T23:20:20.373Z,15.60
2022-11-20T23:23:09.240Z,15.66
2022-11-20T23:25:57.482Z,15.69
2022-11-20T23:28:47.201Z,15.55
2022-11-20T23:31:29.493Z,15.56
2022-11-20T23:34:18.170Z,15.46
2022-11-20T23:37:02.259Z,15.51
2022-11-20T23:39:52.202Z,15.42
2022-11-20T23:42:34.514Z,15.41
2022-11-20T23:45:23.163Z,15.36
2022-11-20T23:48:05.411Z,15.34
2022-11-20T23:50:54.183Z,15.37
2022-11-20T23:53:37.481Z,15.41
2022-11-20T23:56:27.171Z,15.34
2022-11-20T23:59:09.477Z,15.37
